TAF Portugal - 23 Oct 2017 - 0947 UTC - RocketRoute WX - rrwx.com
LPFR 230500Z 2306/2406 06008KT CAVOK BECMG 2309/2311 12012KT BECMG 2317/2319 01005KT BECMG 2400/2402 06008KT LPPT 230500Z 2306/2412 34005KT CAVOK BECMG 2306/2308 04007KT BECMG 2315/2318 33010KT BECMG 2400/2403 04007KT LPMA 230500Z 2306/2406 02013KT 9999 SCT015 SCT030 TEMPO 2306/2309 BKN015 BECMG 2321/2324 VRB05KT TEMPO 2400/2406 34008KT LPPD 230500Z 2306/2406 21015KT 9999 SCT012 BKN030 TEMPO 2306/2406 3000 DZRA BR SCT002 BKN004 LPPR 230500Z 2306/2406 08008KT CAVOK BECMG 2312/2315 32010KT BECMG 2318/2321 08005KT BECMG 2404/2406 11008KT LPPS 230500Z 2306/2412 07013KT 9999 SCT015 BKN030 TEMPO 2306/2309 BKN015 BECMG 2403/2405 VRB05KT LPAZ 230631Z 2306/2412 19013KT 9999 FEW020 SCT045 TEMPO 2306/2406 SCT015 BKN030 PROB30 TEMPO 2312/2406 3000 DZRA BR SCT004 BKN008 BECMG 2406/2408 SCT006 BKN012 TEMPO 2408/2412 2000 DZRA BKN003 LPST 230801Z 2309/2318 VRB02KT CAVOK BECMG 2311/2313 01005KT

RocketRoute WX - rrwx.com weather for pilots